sensor_id;sensor_type;location;lat;lon;timestamp;temperature;humidity
71672;DHT22;67659;45.554;11.812;2023-02-08T00:01:16;1.80;54.80
71672;DHT22;67659;45.554;11.812;2023-02-08T00:03:42;1.60;53.90
71672;DHT22;67659;45.554;11.812;2023-02-08T00:06:08;1.50;54.30
71672;DHT22;67659;45.554;11.812;2023-02-08T00:08:35;1.50;54.20
71672;DHT22;67659;45.554;11.812;2023-02-08T00:11:02;1.80;53.70
71672;DHT22;67659;45.554;11.812;2023-02-08T00:13:28;1.50;53.70
71672;DHT22;67659;45.554;11.812;2023-02-08T00:15:54;1.40;54.20
71672;DHT22;67659;45.554;11.812;2023-02-08T00:18:21;1.60;54.10
71672;DHT22;67659;45.554;11.812;2023-02-08T00:20:47;1.60;54.30
71672;DHT22;67659;45.554;11.812;2023-02-08T00:23:13;1.50;54.70
71672;DHT22;67659;45.554;11.812;2023-02-08T00:25:40;1.40;54.30
71672;DHT22;67659;45.554;11.812;2023-02-08T00:28:08;1.50;54.20
71672;DHT22;67659;45.554;11.812;2023-02-08T00:30:36;1.60;53.60
71672;DHT22;67659;45.554;11.812;2023-02-08T00:33:02;1.50;53.80
71672;DHT22;67659;45.554;11.812;2023-02-08T00:35:29;1.50;53.70
71672;DHT22;67659;45.554;11.812;2023-02-08T00:37:55;1.50;53.50
71672;DHT22;67659;45.554;11.812;2023-02-08T00:40:21;1.70;52.80
71672;DHT22;67659;45.554;11.812;2023-02-08T00:42:47;1.30;52.80
71672;DHT22;67659;45.554;11.812;2023-02-08T00:45:12;1.40;53.30
71672;DHT22;67659;45.554;11.812;2023-02-08T00:47:38;1.40;52.70
71672;DHT22;67659;45.554;11.812;2023-02-08T00:50:04;1.20;53.50
71672;DHT22;67659;45.554;11.812;2023-02-08T00:52:30;1.00;53.90
71672;DHT22;67659;45.554;11.812;2023-02-08T00:54:56;1.00;54.10
71672;DHT22;67659;45.554;11.812;2023-02-08T00:57:22;1.30;53.70
71672;DHT22;67659;45.554;11.812;2023-02-08T00:59:47;1.20;52.90
71672;DHT22;67659;45.554;11.812;2023-02-08T01:02:13;1.20;53.20
71672;DHT22;67659;45.554;11.812;2023-02-08T01:04:40;1.40;53.40
71672;DHT22;67659;45.554;11.812;2023-02-08T01:07:07;1.40;53.00
71672;DHT22;67659;45.554;11.812;2023-02-08T01:09:37;1.10;52.80
71672;DHT22;67659;45.554;11.812;2023-02-08T01:12:10;1.20;53.10
71672;DHT22;67659;45.554;11.812;2023-02-08T01:14:38;1.00;53.50
71672;DHT22;67659;45.554;11.812;2023-02-08T01:17:04;1.10;53.80
71672;DHT22;67659;45.554;11.812;2023-02-08T01:19:30;1.00;54.50
71672;DHT22;67659;45.554;11.812;2023-02-08T01:21:58;1.10;54.60
71672;DHT22;67659;45.554;11.812;2023-02-08T01:24:25;1.10;54.60
71672;DHT22;67659;45.554;11.812;2023-02-08T01:26:51;1.10;54.50
71672;DHT22;67659;45.554;11.812;2023-02-08T01:29:16;1.10;54.40
71672;DHT22;67659;45.554;11.812;2023-02-08T01:31:43;1.20;54.20
71672;DHT22;67659;45.554;11.812;2023-02-08T01:34:10;1.20;54.80
71672;DHT22;67659;45.554;11.812;2023-02-08T01:36:37;1.10;54.70
71672;DHT22;67659;45.554;11.812;2023-02-08T01:39:05;1.40;54.90
71672;DHT22;67659;45.554;11.812;2023-02-08T01:41:38;1.20;54.90
71672;DHT22;67659;45.554;11.812;2023-02-08T01:46:57;0.90;55.30
71672;DHT22;67659;45.554;11.812;2023-02-08T01:49:28;1.20;55.40
71672;DHT22;67659;45.554;11.812;2023-02-08T01:52:16;1.10;55.00
71672;DHT22;67659;45.554;11.812;2023-02-08T01:54:55;1.00;55.70
71672;DHT22;67659;45.554;11.812;2023-02-08T01:57:22;1.10;55.60
71672;DHT22;67659;45.554;11.812;2023-02-08T02:00:11;1.10;55.50
71672;DHT22;67659;45.554;11.812;2023-02-08T02:02:38;1.00;55.00
71672;DHT22;67659;45.554;11.812;2023-02-08T02:05:06;1.30;55.00
71672;DHT22;67659;45.554;11.812;2023-02-08T02:07:32;1.20;54.40
71672;DHT22;67659;45.554;11.812;2023-02-08T02:10:22;1.10;55.10
71672;DHT22;67659;45.554;11.812;2023-02-08T02:12:50;1.10;54.50
71672;DHT22;67659;45.554;11.812;2023-02-08T02:15:16;1.10;54.40
71672;DHT22;67659;45.554;11.812;2023-02-08T02:17:42;1.20;54.30
71672;DHT22;67659;45.554;11.812;2023-02-08T02:20:10;1.20;54.20
71672;DHT22;67659;45.554;11.812;2023-02-08T02:34:18;1.40;52.30
71672;DHT22;67659;45.554;11.812;2023-02-08T02:36:56;1.30;52.00
71672;DHT22;67659;45.554;11.812;2023-02-08T02:42:33;1.30;51.30
71672;DHT22;67659;45.554;11.812;2023-02-08T02:45:54;1.50;51.60
71672;DHT22;67659;45.554;11.812;2023-02-08T02:51:16;1.20;51.40
71672;DHT22;67659;45.554;11.812;2023-02-08T02:54:00;1.20;51.10
71672;DHT22;67659;45.554;11.812;2023-02-08T02:56:35;1.10;50.70
71672;DHT22;67659;45.554;11.812;2023-02-08T02:59:05;1.40;51.60
71672;DHT22;67659;45.554;11.812;2023-02-08T03:01:32;1.20;50.70
71672;DHT22;67659;45.554;11.812;2023-02-08T03:03:58;1.40;51.20
71672;DHT22;67659;45.554;11.812;2023-02-08T03:06:46;1.20;51.10
71672;DHT22;67659;45.554;11.812;2023-02-08T03:20:22;1.10;51.40
71672;DHT22;67659;45.554;11.812;2023-02-08T03:23:06;1.20;51.30
71672;DHT22;67659;45.554;11.812;2023-02-08T03:25:45;1.10;51.50
71672;DHT22;67659;45.554;11.812;2023-02-08T03:33:57;1.00;50.80
71672;DHT22;67659;45.554;11.812;2023-02-08T03:36:37;0.90;50.80
71672;DHT22;67659;45.554;11.812;2023-02-08T03:39:09;0.90;51.40
71672;DHT22;67659;45.554;11.812;2023-02-08T03:41:39;1.00;51.70
71672;DHT22;67659;45.554;11.812;2023-02-08T03:46:59;1.00;51.70
71672;DHT22;67659;45.554;11.812;2023-02-08T03:49:30;0.80;51.00
71672;DHT22;67659;45.554;11.812;2023-02-08T03:52:00;0.90;50.60
71672;DHT22;67659;45.554;11.812;2023-02-08T03:54:30;0.90;51.00
71672;DHT22;67659;45.554;11.812;2023-02-08T03:57:06;0.70;50.60
71672;DHT22;67659;45.554;11.812;2023-02-08T03:59:38;0.40;52.00
71672;DHT22;67659;45.554;11.812;2023-02-08T04:02:08;0.60;52.60
71672;DHT22;67659;45.554;11.812;2023-02-08T04:04:40;0.30;52.60
71672;DHT22;67659;45.554;11.812;2023-02-08T04:07:07;0.20;53.40
71672;DHT22;67659;45.554;11.812;2023-02-08T04:09:32;0.50;53.60
71672;DHT22;67659;45.554;11.812;2023-02-08T04:11:58;0.50;53.30
71672;DHT22;67659;45.554;11.812;2023-02-08T04:14:24;0.40;53.30
71672;DHT22;67659;45.554;11.812;2023-02-08T04:16:50;0.40;54.40
71672;DHT22;67659;45.554;11.812;2023-02-08T04:19:16;-3276.60;55.20
71672;DHT22;67659;45.554;11.812;2023-02-08T04:21:42;-3276.50;55.80
71672;DHT22;67659;45.554;11.812;2023-02-08T04:24:08;-3276.70;55.10
71672;DHT22;67659;45.554;11.812;2023-02-08T04:26:33;0.20;54.70
71672;DHT22;67659;45.554;11.812;2023-02-08T04:29:00;0.00;54.80
71672;DHT22;67659;45.554;11.812;2023-02-08T04:31:25;0.00;54.90
71672;DHT22;67659;45.554;11.812;2023-02-08T04:33:51;0.20;54.70
71672;DHT22;67659;45.554;11.812;2023-02-08T04:36:18;0.00;55.40
71672;DHT22;67659;45.554;11.812;2023-02-08T04:38:43;0.30;54.60
71672;DHT22;67659;45.554;11.812;2023-02-08T04:41:09;0.00;54.20
71672;DHT22;67659;45.554;11.812;2023-02-08T04:43:35;-3276.70;55.20
71672;DHT22;67659;45.554;11.812;2023-02-08T04:46:01;-3276.30;57.40
71672;DHT22;67659;45.554;11.812;2023-02-08T04:48:27;-3276.50;57.60
71672;DHT22;67659;45.554;11.812;2023-02-08T04:50:56;-3276.40;56.40
71672;DHT22;67659;45.554;11.812;2023-02-08T04:53:23;0.00;56.20
71672;DHT22;67659;45.554;11.812;2023-02-08T04:55:50;-3276.70;56.10
71672;DHT22;67659;45.554;11.812;2023-02-08T04:58:16;0.00;55.70
71672;DHT22;67659;45.554;11.812;2023-02-08T05:00:42;-3276.70;55.90
71672;DHT22;67659;45.554;11.812;2023-02-08T05:03:08;0.00;55.60
71672;DHT22;67659;45.554;11.812;2023-02-08T05:05:34;0.00;55.10
71672;DHT22;67659;45.554;11.812;2023-02-08T05:08:00;0.10;55.50
71672;DHT22;67659;45.554;11.812;2023-02-08T05:10:26;0.00;55.30
71672;DHT22;67659;45.554;11.812;2023-02-08T05:12:53;0.20;55.10
71672;DHT22;67659;45.554;11.812;2023-02-08T05:15:18;0.10;54.70
71672;DHT22;67659;45.554;11.812;2023-02-08T05:17:44;0.20;54.90
71672;DHT22;67659;45.554;11.812;2023-02-08T05:20:11;0.10;54.70
71672;DHT22;67659;45.554;11.812;2023-02-08T05:22:37;0.20;54.40
71672;DHT22;67659;45.554;11.812;2023-02-08T05:25:03;0.10;54.30
71672;DHT22;67659;45.554;11.812;2023-02-08T05:27:29;0.30;54.60
71672;DHT22;67659;45.554;11.812;2023-02-08T05:29:55;0.10;54.00
71672;DHT22;67659;45.554;11.812;2023-02-08T05:32:21;0.00;54.60
71672;DHT22;67659;45.554;11.812;2023-02-08T05:34:47;0.00;55.00
71672;DHT22;67659;45.554;11.812;2023-02-08T05:37:12;0.00;55.30
71672;DHT22;67659;45.554;11.812;2023-02-08T05:39:39;0.00;55.30
71672;DHT22;67659;45.554;11.812;2023-02-08T05:42:05;0.00;55.60
71672;DHT22;67659;45.554;11.812;2023-02-08T05:44:32;0.10;55.20
71672;DHT22;67659;45.554;11.812;2023-02-08T05:46:58;0.10;55.10
71672;DHT22;67659;45.554;11.812;2023-02-08T05:49:24;0.30;55.10
71672;DHT22;67659;45.554;11.812;2023-02-08T05:51:50;0.20;55.00
71672;DHT22;67659;45.554;11.812;2023-02-08T05:54:16;0.00;54.70
71672;DHT22;67659;45.554;11.812;2023-02-08T05:56:42;0.10;54.90
71672;DHT22;67659;45.554;11.812;2023-02-08T05:59:09;0.10;54.70
71672;DHT22;67659;45.554;11.812;2023-02-08T06:01:35;0.00;55.70
71672;DHT22;67659;45.554;11.812;2023-02-08T06:04:02;-3276.70;59.40
71672;DHT22;67659;45.554;11.812;2023-02-08T06:06:28;0.00;56.40
71672;DHT22;67659;45.554;11.812;2023-02-08T06:08:54;-3276.70;57.10
71672;DHT22;67659;45.554;11.812;2023-02-08T06:11:20;-3276.70;56.50
71672;DHT22;67659;45.554;11.812;2023-02-08T06:13:46;-3276.70;57.90
71672;DHT22;67659;45.554;11.812;2023-02-08T06:16:13;-3276.70;59.20
71672;DHT22;67659;45.554;11.812;2023-02-08T06:18:39;0.00;57.50
71672;DHT22;67659;45.554;11.812;2023-02-08T06:21:05;0.20;58.10
71672;DHT22;67659;45.554;11.812;2023-02-08T06:23:31;0.20;58.00
71672;DHT22;67659;45.554;11.812;2023-02-08T06:25:57;0.20;57.70
71672;DHT22;67659;45.554;11.812;2023-02-08T06:28:23;0.20;56.90
71672;DHT22;67659;45.554;11.812;2023-02-08T06:30:50;0.30;56.30
71672;DHT22;67659;45.554;11.812;2023-02-08T06:33:16;0.50;56.60
71672;DHT22;67659;45.554;11.812;2023-02-08T06:35:45;0.20;55.20
71672;DHT22;67659;45.554;11.812;2023-02-08T06:38:12;0.50;54.20
71672;DHT22;67659;45.554;11.812;2023-02-08T06:40:38;0.50;53.90
71672;DHT22;67659;45.554;11.812;2023-02-08T06:43:04;0.50;54.20
71672;DHT22;67659;45.554;11.812;2023-02-08T06:45:29;0.50;54.10
71672;DHT22;67659;45.554;11.812;2023-02-08T06:47:55;0.60;53.30
71672;DHT22;67659;45.554;11.812;2023-02-08T06:50:21;0.50;53.70
71672;DHT22;67659;45.554;11.812;2023-02-08T06:52:47;0.50;53.70
71672;DHT22;67659;45.554;11.812;2023-02-08T06:55:13;1.00;53.50
71672;DHT22;67659;45.554;11.812;2023-02-08T06:57:39;1.50;52.10
71672;DHT22;67659;45.554;11.812;2023-02-08T07:00:05;2.60;51.20
71672;DHT22;67659;45.554;11.812;2023-02-08T07:02:31;4.10;49.50
71672;DHT22;67659;45.554;11.812;2023-02-08T07:04:57;5.00;45.70
71672;DHT22;67659;45.554;11.812;2023-02-08T07:07:23;5.70;43.90
71672;DHT22;67659;45.554;11.812;2023-02-08T07:09:49;6.30;43.40
71672;DHT22;67659;45.554;11.812;2023-02-08T07:12:15;6.90;44.00
71672;DHT22;67659;45.554;11.812;2023-02-08T07:14:42;7.80;42.40
71672;DHT22;67659;45.554;11.812;2023-02-08T07:17:09;8.90;40.10
71672;DHT22;67659;45.554;11.812;2023-02-08T07:19:35;9.70;39.10
71672;DHT22;67659;45.554;11.812;2023-02-08T07:22:01;10.60;38.10
71672;DHT22;67659;45.554;11.812;2023-02-08T07:24:37;11.20;36.80
71672;DHT22;67659;45.554;11.812;2023-02-08T07:27:04;11.60;35.20
71672;DHT22;67659;45.554;11.812;2023-02-08T07:29:32;11.80;35.30
71672;DHT22;67659;45.554;11.812;2023-02-08T07:31:59;11.80;33.50
71672;DHT22;67659;45.554;11.812;2023-02-08T07:34:30;12.90;33.10
71672;DHT22;67659;45.554;11.812;2023-02-08T07:36:57;13.30;33.30
71672;DHT22;67659;45.554;11.812;2023-02-08T07:39:23;14.40;32.00
71672;DHT22;67659;45.554;11.812;2023-02-08T07:41:49;14.80;30.10
71672;DHT22;67659;45.554;11.812;2023-02-08T07:44:15;15.10;30.70
71672;DHT22;67659;45.554;11.812;2023-02-08T07:46:41;15.40;29.60
71672;DHT22;67659;45.554;11.812;2023-02-08T07:49:07;16.00;27.70
71672;DHT22;67659;45.554;11.812;2023-02-08T07:51:33;16.40;27.80
71672;DHT22;67659;45.554;11.812;2023-02-08T07:53:58;17.00;27.00
71672;DHT22;67659;45.554;11.812;2023-02-08T07:56:24;17.50;25.40
71672;DHT22;67659;45.554;11.812;2023-02-08T07:58:50;17.70;25.50
71672;DHT22;67659;45.554;11.812;2023-02-08T08:01:16;17.20;26.20
71672;DHT22;67659;45.554;11.812;2023-02-08T08:03:42;17.60;24.80
71672;DHT22;67659;45.554;11.812;2023-02-08T08:06:08;17.70;24.00
71672;DHT22;67659;45.554;11.812;2023-02-08T08:08:34;18.20;24.20
71672;DHT22;67659;45.554;11.812;2023-02-08T08:10:59;18.40;23.70
71672;DHT22;67659;45.554;11.812;2023-02-08T08:13:25;18.70;21.40
71672;DHT22;67659;45.554;11.812;2023-02-08T08:15:51;18.80;21.60
71672;DHT22;67659;45.554;11.812;2023-02-08T08:18:17;18.60;20.30
71672;DHT22;67659;45.554;11.812;2023-02-08T08:20:43;18.80;22.50
71672;DHT22;67659;45.554;11.812;2023-02-08T08:23:09;18.90;22.10
71672;DHT22;67659;45.554;11.812;2023-02-08T08:25:36;19.20;21.90
71672;DHT22;67659;45.554;11.812;2023-02-08T08:28:03;19.50;21.70
71672;DHT22;67659;45.554;11.812;2023-02-08T08:30:29;19.40;21.30
71672;DHT22;67659;45.554;11.812;2023-02-08T08:32:55;19.50;20.00
71672;DHT22;67659;45.554;11.812;2023-02-08T08:35:21;19.00;20.70
71672;DHT22;67659;45.554;11.812;2023-02-08T08:37:47;19.30;20.80
71672;DHT22;67659;45.554;11.812;2023-02-08T08:40:12;19.40;21.20
71672;DHT22;67659;45.554;11.812;2023-02-08T08:42:38;19.30;19.80
71672;DHT22;67659;45.554;11.812;2023-02-08T08:45:05;19.40;19.80
71672;DHT22;67659;45.554;11.812;2023-02-08T08:47:31;19.40;21.30
71672;DHT22;67659;45.554;11.812;2023-02-08T08:49:57;20.00;21.20
71672;DHT22;67659;45.554;11.812;2023-02-08T08:52:23;20.10;20.10
71672;DHT22;67659;45.554;11.812;2023-02-08T08:54:49;19.70;19.10
71672;DHT22;67659;45.554;11.812;2023-02-08T08:57:15;19.70;20.50
71672;DHT22;67659;45.554;11.812;2023-02-08T08:59:41;19.60;19.50
71672;DHT22;67659;45.554;11.812;2023-02-08T09:02:12;19.10;20.30
71672;DHT22;67659;45.554;11.812;2023-02-08T09:04:38;19.30;17.90
71672;DHT22;67659;45.554;11.812;2023-02-08T09:07:08;19.70;18.90
71672;DHT22;67659;45.554;11.812;2023-02-08T09:09:34;19.50;19.40
71672;DHT22;67659;45.554;11.812;2023-02-08T09:12:02;19.60;17.70
71672;DHT22;67659;45.554;11.812;2023-02-08T09:14:28;19.80;19.50
71672;DHT22;67659;45.554;11.812;2023-02-08T09:16:54;20.40;19.00
71672;DHT22;67659;45.554;11.812;2023-02-08T09:19:20;20.80;17.70
71672;DHT22;67659;45.554;11.812;2023-02-08T09:21:45;21.00;15.30
71672;DHT22;67659;45.554;11.812;2023-02-08T09:24:11;20.40;17.30
71672;DHT22;67659;45.554;11.812;2023-02-08T09:26:37;20.10;18.80
71672;DHT22;67659;45.554;11.812;2023-02-08T09:29:05;20.80;19.50
71672;DHT22;67659;45.554;11.812;2023-02-08T09:31:35;21.40;16.10
71672;DHT22;67659;45.554;11.812;2023-02-08T09:34:03;21.80;15.50
71672;DHT22;67659;45.554;11.812;2023-02-08T09:36:32;21.80;15.20
71672;DHT22;67659;45.554;11.812;2023-02-08T09:39:01;22.40;15.30
71672;DHT22;67659;45.554;11.812;2023-02-08T09:49:29;23.10;13.80
71672;DHT22;67659;45.554;11.812;2023-02-08T09:52:02;23.30;12.70
71672;DHT22;67659;45.554;11.812;2023-02-08T09:54:51;23.90;13.70
71672;DHT22;67659;45.554;11.812;2023-02-08T09:57:27;24.30;11.80
71672;DHT22;67659;45.554;11.812;2023-02-08T10:00:03;24.80;12.60
71672;DHT22;67659;45.554;11.812;2023-02-08T10:02:34;24.60;11.80
71672;DHT22;67659;45.554;11.812;2023-02-08T10:05:11;24.30;12.50
71672;DHT22;67659;45.554;11.812;2023-02-08T10:07:40;23.20;12.60
71672;DHT22;67659;45.554;11.812;2023-02-08T10:10:21;23.20;12.60
71672;DHT22;67659;45.554;11.812;2023-02-08T10:18:42;22.90;11.80
71672;DHT22;67659;45.554;11.812;2023-02-08T10:26:29;22.40;12.80
71672;DHT22;67659;45.554;11.812;2023-02-08T10:32:00;22.60;14.00
71672;DHT22;67659;45.554;11.812;2023-02-08T10:34:56;22.90;12.70
71672;DHT22;67659;45.554;11.812;2023-02-08T10:37:31;22.90;12.60
71672;DHT22;67659;45.554;11.812;2023-02-08T10:40:30;23.90;12.30
71672;DHT22;67659;45.554;11.812;2023-02-08T10:43:51;24.00;12.20
71672;DHT22;67659;45.554;11.812;2023-02-08T10:46:24;24.40;11.30
71672;DHT22;67659;45.554;11.812;2023-02-08T10:49:02;24.40;10.30
71672;DHT22;67659;45.554;11.812;2023-02-08T10:51:33;23.80;11.70
71672;DHT22;67659;45.554;11.812;2023-02-08T10:53:59;24.40;11.50
71672;DHT22;67659;45.554;11.812;2023-02-08T10:56:40;24.30;11.00
71672;DHT22;67659;45.554;11.812;2023-02-08T10:59:27;23.70;10.50
71672;DHT22;67659;45.554;11.812;2023-02-08T11:01:55;24.00;11.20
71672;DHT22;67659;45.554;11.812;2023-02-08T11:04:23;24.00;10.30
71672;DHT22;67659;45.554;11.812;2023-02-08T11:06:49;23.30;10.80
71672;DHT22;67659;45.554;11.812;2023-02-08T11:09:30;23.80;10.20
71672;DHT22;67659;45.554;11.812;2023-02-08T11:11:57;23.50;9.70
71672;DHT22;67659;45.554;11.812;2023-02-08T11:14:27;23.40;9.30
71672;DHT22;67659;45.554;11.812;2023-02-08T11:16:57;24.00;11.20
71672;DHT22;67659;45.554;11.812;2023-02-08T11:19:36;22.60;8.90
71672;DHT22;67659;45.554;11.812;2023-02-08T11:22:15;21.60;10.70
71672;DHT22;67659;45.554;11.812;2023-02-08T11:24:43;21.50;12.90
71672;DHT22;67659;45.554;11.812;2023-02-08T11:27:35;21.90;12.00
71672;DHT22;67659;45.554;11.812;2023-02-08T11:30:20;21.60;12.30
71672;DHT22;67659;45.554;11.812;2023-02-08T11:32:48;22.00;10.40
71672;DHT22;67659;45.554;11.812;2023-02-08T11:37:53;23.30;11.00
71672;DHT22;67659;45.554;11.812;2023-02-08T11:42:52;24.00;10.90
71672;DHT22;67659;45.554;11.812;2023-02-08T11:45:27;23.50;10.20
71672;DHT22;67659;45.554;11.812;2023-02-08T11:47:54;23.90;11.60
71672;DHT22;67659;45.554;11.812;2023-02-08T11:53:04;24.50;9.40
71672;DHT22;67659;45.554;11.812;2023-02-08T11:55:32;24.10;10.10
71672;DHT22;67659;45.554;11.812;2023-02-08T11:58:23;24.00;9.30
71672;DHT22;67659;45.554;11.812;2023-02-08T12:01:19;24.00;11.00
71672;DHT22;67659;45.554;11.812;2023-02-08T12:03:46;22.70;9.40
71672;DHT22;67659;45.554;11.812;2023-02-08T12:06:37;23.00;9.30
71672;DHT22;67659;45.554;11.812;2023-02-08T12:09:30;22.80;8.50
71672;DHT22;67659;45.554;11.812;2023-02-08T12:18:18;21.60;9.80
71672;DHT22;67659;45.554;11.812;2023-02-08T12:20:38;20.90;9.70
71672;DHT22;67659;45.554;11.812;2023-02-08T12:34:12;21.80;12.40
71672;DHT22;67659;45.554;11.812;2023-02-08T12:39:41;21.80;11.50
71672;DHT22;67659;45.554;11.812;2023-02-08T12:48:38;21.70;11.10
71672;DHT22;67659;45.554;11.812;2023-02-08T12:53:54;20.50;13.10
71672;DHT22;67659;45.554;11.812;2023-02-08T12:56:28;20.80;12.60
71672;DHT22;67659;45.554;11.812;2023-02-08T12:58:59;20.30;13.20
71672;DHT22;67659;45.554;11.812;2023-02-08T13:01:29;19.60;13.50
71672;DHT22;67659;45.554;11.812;2023-02-08T13:06:43;20.50;12.70
71672;DHT22;67659;45.554;11.812;2023-02-08T13:12:03;20.10;12.30
71672;DHT22;67659;45.554;11.812;2023-02-08T13:14:32;20.30;13.10
71672;DHT22;67659;45.554;11.812;2023-02-08T13:17:23;19.70;11.90
71672;DHT22;67659;45.554;11.812;2023-02-08T13:20:12;20.70;13.10
71672;DHT22;67659;45.554;11.812;2023-02-08T13:22:41;21.10;11.20
71672;DHT22;67659;45.554;11.812;2023-02-08T13:28:20;19.80;13.10
71672;DHT22;67659;45.554;11.812;2023-02-08T13:31:12;19.00;14.00
71672;DHT22;67659;45.554;11.812;2023-02-08T13:34:27;20.00;13.70
71672;DHT22;67659;45.554;11.812;2023-02-08T13:36:52;20.00;12.50
71672;DHT22;67659;45.554;11.812;2023-02-08T13:39:39;19.60;13.40
71672;DHT22;67659;45.554;11.812;2023-02-08T13:42:17;19.80;12.90
71672;DHT22;67659;45.554;11.812;2023-02-08T13:44:49;19.50;13.00
71672;DHT22;67659;45.554;11.812;2023-02-08T13:47:31;20.00;13.40
71672;DHT22;67659;45.554;11.812;2023-02-08T13:50:05;20.50;12.90
71672;DHT22;67659;45.554;11.812;2023-02-08T13:52:50;20.00;11.70
71672;DHT22;67659;45.554;11.812;2023-02-08T13:58:03;18.40;14.70
71672;DHT22;67659;45.554;11.812;2023-02-08T14:00:32;18.20;15.20
71672;DHT22;67659;45.554;11.812;2023-02-08T14:08:43;19.10;14.10
71672;DHT22;67659;45.554;11.812;2023-02-08T14:14:12;16.60;16.20
71672;DHT22;67659;45.554;11.812;2023-02-08T14:19:37;15.10;17.70
71672;DHT22;67659;45.554;11.812;2023-02-08T14:24:34;15.10;19.90
71672;DHT22;67659;45.554;11.812;2023-02-08T14:27:09;14.80;20.20
71672;DHT22;67659;45.554;11.812;2023-02-08T14:29:40;14.60;19.10
71672;DHT22;67659;45.554;11.812;2023-02-08T14:32:06;14.80;20.40
71672;DHT22;67659;45.554;11.812;2023-02-08T14:34:34;13.90;19.90
71672;DHT22;67659;45.554;11.812;2023-02-08T14:37:26;13.40;20.30
71672;DHT22;67659;45.554;11.812;2023-02-08T14:43:26;12.60;24.00
71672;DHT22;67659;45.554;11.812;2023-02-08T14:45:51;11.80;24.30
71672;DHT22;67659;45.554;11.812;2023-02-08T14:56:34;11.00;27.50
71672;DHT22;67659;45.554;11.812;2023-02-08T14:59:08;10.60;27.80
71672;DHT22;67659;45.554;11.812;2023-02-08T15:01:40;10.50;28.00
71672;DHT22;67659;45.554;11.812;2023-02-08T15:04:06;10.50;26.60
71672;DHT22;67659;45.554;11.812;2023-02-08T15:09:04;10.20;27.80
71672;DHT22;67659;45.554;11.812;2023-02-08T15:11:32;10.30;28.70
71672;DHT22;67659;45.554;11.812;2023-02-08T15:14:02;10.40;28.40
71672;DHT22;67659;45.554;11.812;2023-02-08T15:16:38;10.20;27.40
71672;DHT22;67659;45.554;11.812;2023-02-08T15:19:07;10.10;26.60
71672;DHT22;67659;45.554;11.812;2023-02-08T15:21:34;9.80;26.00
71672;DHT22;67659;45.554;11.812;2023-02-08T15:24:13;9.70;25.20
71672;DHT22;67659;45.554;11.812;2023-02-08T15:26:53;9.70;24.40
71672;DHT22;67659;45.554;11.812;2023-02-08T15:29:28;9.90;24.90
71672;DHT22;67659;45.554;11.812;2023-02-08T15:31:54;9.70;25.90
71672;DHT22;67659;45.554;11.812;2023-02-08T15:34:24;9.90;26.50
71672;DHT22;67659;45.554;11.812;2023-02-08T15:36:52;9.90;26.40
71672;DHT22;67659;45.554;11.812;2023-02-08T15:39:23;10.00;26.80
71672;DHT22;67659;45.554;11.812;2023-02-08T15:41:50;9.20;26.60
71672;DHT22;67659;45.554;11.812;2023-02-08T15:44:27;9.50;27.30
71672;DHT22;67659;45.554;11.812;2023-02-08T15:46:57;9.30;27.70
71672;DHT22;67659;45.554;11.812;2023-02-08T15:49:34;9.30;27.20
71672;DHT22;67659;45.554;11.812;2023-02-08T15:52:01;9.20;27.20
71672;DHT22;67659;45.554;11.812;2023-02-08T15:54:28;9.30;27.80
71672;DHT22;67659;45.554;11.812;2023-02-08T15:57:05;9.10;27.70
71672;DHT22;67659;45.554;11.812;2023-02-08T15:59:36;9.00;28.10
71672;DHT22;67659;45.554;11.812;2023-02-08T16:04:42;8.40;29.10
71672;DHT22;67659;45.554;11.812;2023-02-08T16:07:36;8.60;29.40
71672;DHT22;67659;45.554;11.812;2023-02-08T16:10:04;8.40;29.90
71672;DHT22;67659;45.554;11.812;2023-02-08T16:12:30;7.90;30.60
71672;DHT22;67659;45.554;11.812;2023-02-08T16:14:56;8.10;30.30
71672;DHT22;67659;45.554;11.812;2023-02-08T16:17:44;8.00;30.20
71672;DHT22;67659;45.554;11.812;2023-02-08T16:20:28;7.70;31.00
71672;DHT22;67659;45.554;11.812;2023-02-08T16:23:20;7.70;30.60
71672;DHT22;67659;45.554;11.812;2023-02-08T16:25:49;7.60;30.90
71672;DHT22;67659;45.554;11.812;2023-02-08T16:28:29;7.50;31.10
71672;DHT22;67659;45.554;11.812;2023-02-08T16:30:59;7.40;31.40
71672;DHT22;67659;45.554;11.812;2023-02-08T16:33:27;7.10;31.60
71672;DHT22;67659;45.554;11.812;2023-02-08T16:35:54;7.20;32.10
71672;DHT22;67659;45.554;11.812;2023-02-08T16:38:30;7.20;31.60
71672;DHT22;67659;45.554;11.812;2023-02-08T16:40:57;7.30;31.80
71672;DHT22;67659;45.554;11.812;2023-02-08T16:43:37;6.90;31.90
71672;DHT22;67659;45.554;11.812;2023-02-08T16:48:49;6.90;32.60
71672;DHT22;67659;45.554;11.812;2023-02-08T16:51:24;7.00;33.50
71672;DHT22;67659;45.554;11.812;2023-02-08T16:53:56;6.90;33.10
71672;DHT22;67659;45.554;11.812;2023-02-08T16:56:24;6.70;32.90
71672;DHT22;67659;45.554;11.812;2023-02-08T16:58:50;6.90;33.10
71672;DHT22;67659;45.554;11.812;2023-02-08T17:01:16;7.10;32.90
71672;DHT22;67659;45.554;11.812;2023-02-08T17:03:44;7.00;31.50
71672;DHT22;67659;45.554;11.812;2023-02-08T17:06:36;7.00;32.30
71672;DHT22;67659;45.554;11.812;2023-02-08T17:09:05;6.80;33.30
71672;DHT22;67659;45.554;11.812;2023-02-08T17:11:31;6.90;33.30
71672;DHT22;67659;45.554;11.812;2023-02-08T17:13:57;6.80;33.00
71672;DHT22;67659;45.554;11.812;2023-02-08T17:16:25;6.90;32.50
71672;DHT22;67659;45.554;11.812;2023-02-08T17:18:52;6.80;32.80
71672;DHT22;67659;45.554;11.812;2023-02-08T17:21:18;6.80;33.40
71672;DHT22;67659;45.554;11.812;2023-02-08T17:23:44;6.80;33.60
71672;DHT22;67659;45.554;11.812;2023-02-08T17:26:22;6.70;33.30
71672;DHT22;67659;45.554;11.812;2023-02-08T17:28:49;6.50;32.90
71672;DHT22;67659;45.554;11.812;2023-02-08T17:31:15;6.60;33.30
71672;DHT22;67659;45.554;11.812;2023-02-08T17:33:41;6.60;32.90
71672;DHT22;67659;45.554;11.812;2023-02-08T17:36:09;6.40;33.10
71672;DHT22;67659;45.554;11.812;2023-02-08T17:38:36;6.40;33.80
71672;DHT22;67659;45.554;11.812;2023-02-08T17:41:14;6.50;34.00
71672;DHT22;67659;45.554;11.812;2023-02-08T17:43:41;6.40;33.30
71672;DHT22;67659;45.554;11.812;2023-02-08T17:48:41;6.10;33.20
71672;DHT22;67659;45.554;11.812;2023-02-08T17:51:22;6.10;32.90
71672;DHT22;67659;45.554;11.812;2023-02-08T17:53:50;5.80;33.70
71672;DHT22;67659;45.554;11.812;2023-02-08T17:56:19;6.20;33.40
71672;DHT22;67659;45.554;11.812;2023-02-08T17:58:45;6.10;33.40
71672;DHT22;67659;45.554;11.812;2023-02-08T18:01:17;6.00;33.90
71672;DHT22;67659;45.554;11.812;2023-02-08T18:03:44;6.20;34.00
71672;DHT22;67659;45.554;11.812;2023-02-08T18:06:11;6.00;33.60
71672;DHT22;67659;45.554;11.812;2023-02-08T18:08:37;5.80;34.30